sensor_id;sensor_type;location;lat;lon;timestamp;temperature;humidity
27647;DHT22;42229;51.230;6.240;2022-10-16T00:00:39;15.00;99.90
27647;DHT22;42229;51.230;6.240;2022-10-16T00:03:07;14.90;99.90
27647;DHT22;42229;51.230;6.240;2022-10-16T00:05:38;15.00;99.90
27647;DHT22;42229;51.230;6.240;2022-10-16T00:08:05;15.00;99.90
27647;DHT22;42229;51.230;6.240;2022-10-16T00:10:32;14.90;99.90
27647;DHT22;42229;51.230;6.240;2022-10-16T00:12:58;14.90;99.90
27647;DHT22;42229;51.230;6.240;2022-10-16T00:15:24;14.90;99.90
27647;DHT22;42229;51.230;6.240;2022-10-16T00:17:51;14.90;99.90
27647;DHT22;42229;51.230;6.240;2022-10-16T00:20:17;14.90;99.90
27647;DHT22;42229;51.230;6.240;2022-10-16T00:22:43;14.90;99.90
27647;DHT22;42229;51.230;6.240;2022-10-16T00:25:09;14.90;99.90
27647;DHT22;42229;51.230;6.240;2022-10-16T00:27:35;14.90;99.90
27647;DHT22;42229;51.230;6.240;2022-10-16T00:30:02;15.00;99.90
27647;DHT22;42229;51.230;6.240;2022-10-16T00:32:29;14.90;99.90
27647;DHT22;42229;51.230;6.240;2022-10-16T00:34:55;15.00;99.90
27647;DHT22;42229;51.230;6.240;2022-10-16T00:37:21;15.00;99.90
27647;DHT22;42229;51.230;6.240;2022-10-16T00:39:47;15.00;99.90
27647;DHT22;42229;51.230;6.240;2022-10-16T00:42:17;15.00;99.90
27647;DHT22;42229;51.230;6.240;2022-10-16T00:47:17;15.00;99.90
27647;DHT22;42229;51.230;6.240;2022-10-16T00:49:46;15.00;99.90
27647;DHT22;42229;51.230;6.240;2022-10-16T00:52:12;15.00;99.90
27647;DHT22;42229;51.230;6.240;2022-10-16T00:54:39;15.00;99.90
27647;DHT22;42229;51.230;6.240;2022-10-16T00:57:06;15.00;99.90
27647;DHT22;42229;51.230;6.240;2022-10-16T00:59:34;15.00;99.90
27647;DHT22;42229;51.230;6.240;2022-10-16T01:02:02;14.90;99.90
27647;DHT22;42229;51.230;6.240;2022-10-16T01:04:32;14.90;99.90
27647;DHT22;42229;51.230;6.240;2022-10-16T01:23:57;14.70;99.90
27647;DHT22;42229;51.230;6.240;2022-10-16T01:31:54;14.60;99.90
27647;DHT22;42229;51.230;6.240;2022-10-16T01:34:30;14.60;99.90
27647;DHT22;42229;51.230;6.240;2022-10-16T01:37:02;14.50;99.90
27647;DHT22;42229;51.230;6.240;2022-10-16T01:39:32;14.60;99.90
27647;DHT22;42229;51.230;6.240;2022-10-16T01:42:09;14.50;99.90
27647;DHT22;42229;51.230;6.240;2022-10-16T01:44:38;14.50;99.90
27647;DHT22;42229;51.230;6.240;2022-10-16T01:47:04;14.50;99.90
27647;DHT22;42229;51.230;6.240;2022-10-16T01:49:32;14.50;99.90
27647;DHT22;42229;51.230;6.240;2022-10-16T01:52:00;14.50;99.90
27647;DHT22;42229;51.230;6.240;2022-10-16T01:54:35;14.50;99.90
27647;DHT22;42229;51.230;6.240;2022-10-16T01:57:03;14.40;99.90
27647;DHT22;42229;51.230;6.240;2022-10-16T01:59:31;14.40;99.90
27647;DHT22;42229;51.230;6.240;2022-10-16T02:01:59;14.40;99.90
27647;DHT22;42229;51.230;6.240;2022-10-16T02:04:31;14.40;99.90
27647;DHT22;42229;51.230;6.240;2022-10-16T02:07:00;14.40;99.90
27647;DHT22;42229;51.230;6.240;2022-10-16T02:09:26;14.40;99.90
27647;DHT22;42229;51.230;6.240;2022-10-16T02:11:54;14.40;99.90
27647;DHT22;42229;51.230;6.240;2022-10-16T02:14:23;14.40;99.90
27647;DHT22;42229;51.230;6.240;2022-10-16T02:16:50;14.40;99.90
27647;DHT22;42229;51.230;6.240;2022-10-16T02:19:17;14.30;99.90
27647;DHT22;42229;51.230;6.240;2022-10-16T02:21:54;14.30;99.90
27647;DHT22;42229;51.230;6.240;2022-10-16T02:24:32;14.30;99.90
27647;DHT22;42229;51.230;6.240;2022-10-16T02:27:39;14.30;99.90
27647;DHT22;42229;51.230;6.240;2022-10-16T02:30:09;14.40;99.90
27647;DHT22;42229;51.230;6.240;2022-10-16T02:32:40;14.40;99.90
27647;DHT22;42229;51.230;6.240;2022-10-16T02:35:08;14.40;99.90
27647;DHT22;42229;51.230;6.240;2022-10-16T02:37:35;14.40;99.90
27647;DHT22;42229;51.230;6.240;2022-10-16T02:40:02;14.40;99.90
27647;DHT22;42229;51.230;6.240;2022-10-16T02:42:37;14.40;99.90
27647;DHT22;42229;51.230;6.240;2022-10-16T02:45:04;14.40;99.90
27647;DHT22;42229;51.230;6.240;2022-10-16T02:47:34;14.50;99.90
27647;DHT22;42229;51.230;6.240;2022-10-16T02:50:01;14.50;99.90
27647;DHT22;42229;51.230;6.240;2022-10-16T02:52:27;14.50;99.90
27647;DHT22;42229;51.230;6.240;2022-10-16T02:54:53;14.50;99.90
27647;DHT22;42229;51.230;6.240;2022-10-16T02:57:20;14.50;99.90
27647;DHT22;42229;51.230;6.240;2022-10-16T02:59:47;14.60;99.90
27647;DHT22;42229;51.230;6.240;2022-10-16T03:02:13;14.50;99.90
27647;DHT22;42229;51.230;6.240;2022-10-16T03:04:39;14.60;99.90
27647;DHT22;42229;51.230;6.240;2022-10-16T03:07:05;14.60;99.90
27647;DHT22;42229;51.230;6.240;2022-10-16T03:09:31;14.60;99.90
27647;DHT22;42229;51.230;6.240;2022-10-16T03:11:58;14.60;99.90
27647;DHT22;42229;51.230;6.240;2022-10-16T03:14:24;14.60;99.90
27647;DHT22;42229;51.230;6.240;2022-10-16T03:16:50;14.60;99.90
27647;DHT22;42229;51.230;6.240;2022-10-16T03:19:17;14.70;99.90
27647;DHT22;42229;51.230;6.240;2022-10-16T03:21:43;14.70;99.90
27647;DHT22;42229;51.230;6.240;2022-10-16T03:24:10;14.70;99.90
27647;DHT22;42229;51.230;6.240;2022-10-16T03:26:36;14.70;99.90
27647;DHT22;42229;51.230;6.240;2022-10-16T03:29:02;14.70;99.90
27647;DHT22;42229;51.230;6.240;2022-10-16T03:31:29;14.70;99.90
27647;DHT22;42229;51.230;6.240;2022-10-16T03:33:56;14.70;99.90
27647;DHT22;42229;51.230;6.240;2022-10-16T03:36:22;14.70;99.90
27647;DHT22;42229;51.230;6.240;2022-10-16T03:38:49;14.70;99.90
27647;DHT22;42229;51.230;6.240;2022-10-16T03:41:15;14.70;99.90
27647;DHT22;42229;51.230;6.240;2022-10-16T03:43:41;14.60;99.90
27647;DHT22;42229;51.230;6.240;2022-10-16T03:46:07;14.60;99.90
27647;DHT22;42229;51.230;6.240;2022-10-16T03:48:34;14.60;99.90
27647;DHT22;42229;51.230;6.240;2022-10-16T03:51:00;14.60;99.90
27647;DHT22;42229;51.230;6.240;2022-10-16T03:53:26;14.50;99.90
27647;DHT22;42229;51.230;6.240;2022-10-16T03:55:52;14.50;99.90
27647;DHT22;42229;51.230;6.240;2022-10-16T03:58:19;14.50;99.90
27647;DHT22;42229;51.230;6.240;2022-10-16T04:00:46;14.50;99.90
27647;DHT22;42229;51.230;6.240;2022-10-16T04:03:13;14.40;99.90
27647;DHT22;42229;51.230;6.240;2022-10-16T04:05:39;14.40;99.90
27647;DHT22;42229;51.230;6.240;2022-10-16T04:08:06;14.40;99.90
27647;DHT22;42229;51.230;6.240;2022-10-16T04:10:32;14.40;99.90
27647;DHT22;42229;51.230;6.240;2022-10-16T04:12:59;14.30;99.90
27647;DHT22;42229;51.230;6.240;2022-10-16T04:15:25;14.30;99.90
27647;DHT22;42229;51.230;6.240;2022-10-16T04:17:52;14.30;99.90
27647;DHT22;42229;51.230;6.240;2022-10-16T04:20:19;14.20;99.90
27647;DHT22;42229;51.230;6.240;2022-10-16T04:22:45;14.20;99.90
27647;DHT22;42229;51.230;6.240;2022-10-16T04:25:11;14.10;99.90
27647;DHT22;42229;51.230;6.240;2022-10-16T04:27:38;14.10;99.90
27647;DHT22;42229;51.230;6.240;2022-10-16T04:30:04;14.10;99.90
27647;DHT22;42229;51.230;6.240;2022-10-16T04:32:31;14.10;99.90
27647;DHT22;42229;51.230;6.240;2022-10-16T04:34:57;14.10;99.90
27647;DHT22;42229;51.230;6.240;2022-10-16T04:37:26;14.10;99.90
27647;DHT22;42229;51.230;6.240;2022-10-16T04:39:53;14.00;99.90
27647;DHT22;42229;51.230;6.240;2022-10-16T04:42:19;14.00;99.90
27647;DHT22;42229;51.230;6.240;2022-10-16T04:44:46;14.00;99.90
27647;DHT22;42229;51.230;6.240;2022-10-16T04:47:12;14.00;99.90
27647;DHT22;42229;51.230;6.240;2022-10-16T04:49:39;14.00;99.90
27647;DHT22;42229;51.230;6.240;2022-10-16T04:52:05;14.00;99.90
27647;DHT22;42229;51.230;6.240;2022-10-16T04:54:32;14.00;99.90
27647;DHT22;42229;51.230;6.240;2022-10-16T04:56:58;14.00;99.90
27647;DHT22;42229;51.230;6.240;2022-10-16T04:59:24;14.00;99.90
27647;DHT22;42229;51.230;6.240;2022-10-16T05:01:50;14.00;99.90
27647;DHT22;42229;51.230;6.240;2022-10-16T05:04:17;14.00;99.90
27647;DHT22;42229;51.230;6.240;2022-10-16T05:06:43;14.00;99.90
27647;DHT22;42229;51.230;6.240;2022-10-16T05:09:09;14.00;99.90
27647;DHT22;42229;51.230;6.240;2022-10-16T05:11:35;14.10;99.90
27647;DHT22;42229;51.230;6.240;2022-10-16T05:14:02;14.00;99.90
27647;DHT22;42229;51.230;6.240;2022-10-16T05:16:29;14.10;99.90
27647;DHT22;42229;51.230;6.240;2022-10-16T05:18:56;14.00;99.90
27647;DHT22;42229;51.230;6.240;2022-10-16T05:21:22;14.10;99.90
27647;DHT22;42229;51.230;6.240;2022-10-16T05:23:48;14.10;99.90
27647;DHT22;42229;51.230;6.240;2022-10-16T05:26:15;14.10;99.90
27647;DHT22;42229;51.230;6.240;2022-10-16T05:28:41;14.10;99.90
27647;DHT22;42229;51.230;6.240;2022-10-16T05:31:08;14.10;99.90
27647;DHT22;42229;51.230;6.240;2022-10-16T05:33:34;14.10;99.90
27647;DHT22;42229;51.230;6.240;2022-10-16T05:36:04;14.10;99.90
27647;DHT22;42229;51.230;6.240;2022-10-16T05:38:36;14.10;99.90
27647;DHT22;42229;51.230;6.240;2022-10-16T05:41:03;14.20;99.90
27647;DHT22;42229;51.230;6.240;2022-10-16T05:43:30;14.10;99.90
27647;DHT22;42229;51.230;6.240;2022-10-16T05:45:57;14.20;99.90
27647;DHT22;42229;51.230;6.240;2022-10-16T05:48:25;14.20;99.90
27647;DHT22;42229;51.230;6.240;2022-10-16T05:50:58;14.20;99.90
27647;DHT22;42229;51.230;6.240;2022-10-16T05:53:33;14.20;99.90
27647;DHT22;42229;51.230;6.240;2022-10-16T05:56:00;14.20;99.90
27647;DHT22;42229;51.230;6.240;2022-10-16T05:58:34;14.20;99.90
27647;DHT22;42229;51.230;6.240;2022-10-16T06:01:07;14.20;99.90
27647;DHT22;42229;51.230;6.240;2022-10-16T06:03:36;14.20;99.90
27647;DHT22;42229;51.230;6.240;2022-10-16T06:06:13;14.20;99.90
27647;DHT22;42229;51.230;6.240;2022-10-16T06:08:40;14.20;99.90
27647;DHT22;42229;51.230;6.240;2022-10-16T06:11:08;14.30;99.90
27647;DHT22;42229;51.230;6.240;2022-10-16T06:13:36;14.30;99.90
27647;DHT22;42229;51.230;6.240;2022-10-16T06:16:02;14.30;99.90
27647;DHT22;42229;51.230;6.240;2022-10-16T06:18:29;14.30;99.90
27647;DHT22;42229;51.230;6.240;2022-10-16T06:20:55;14.30;99.90
27647;DHT22;42229;51.230;6.240;2022-10-16T06:23:23;14.30;99.90
27647;DHT22;42229;51.230;6.240;2022-10-16T06:25:49;14.30;99.90
27647;DHT22;42229;51.230;6.240;2022-10-16T06:28:15;14.40;99.90
27647;DHT22;42229;51.230;6.240;2022-10-16T06:30:42;14.40;99.90
27647;DHT22;42229;51.230;6.240;2022-10-16T06:33:11;14.40;99.90
27647;DHT22;42229;51.230;6.240;2022-10-16T06:35:38;14.40;99.90
27647;DHT22;42229;51.230;6.240;2022-10-16T06:38:04;14.50;99.90
27647;DHT22;42229;51.230;6.240;2022-10-16T06:40:30;14.50;99.90
27647;DHT22;42229;51.230;6.240;2022-10-16T06:42:57;14.50;99.90
27647;DHT22;42229;51.230;6.240;2022-10-16T06:45:23;14.50;99.90
27647;DHT22;42229;51.230;6.240;2022-10-16T06:47:49;14.50;99.90
27647;DHT22;42229;51.230;6.240;2022-10-16T06:50:15;14.50;99.90
27647;DHT22;42229;51.230;6.240;2022-10-16T06:52:42;14.50;99.90
27647;DHT22;42229;51.230;6.240;2022-10-16T06:55:08;14.50;99.90
27647;DHT22;42229;51.230;6.240;2022-10-16T06:57:34;14.50;99.90
27647;DHT22;42229;51.230;6.240;2022-10-16T07:00:00;14.50;99.90
27647;DHT22;42229;51.230;6.240;2022-10-16T07:02:27;14.50;99.90
27647;DHT22;42229;51.230;6.240;2022-10-16T07:04:53;14.50;99.90
27647;DHT22;42229;51.230;6.240;2022-10-16T07:07:19;14.50;99.90
27647;DHT22;42229;51.230;6.240;2022-10-16T07:09:45;14.50;99.90
27647;DHT22;42229;51.230;6.240;2022-10-16T07:12:11;14.40;99.90
27647;DHT22;42229;51.230;6.240;2022-10-16T07:14:38;14.40;99.90
27647;DHT22;42229;51.230;6.240;2022-10-16T07:17:04;14.40;99.90
27647;DHT22;42229;51.230;6.240;2022-10-16T07:19:30;14.40;99.90
27647;DHT22;42229;51.230;6.240;2022-10-16T07:21:56;14.50;99.90
27647;DHT22;42229;51.230;6.240;2022-10-16T07:24:23;14.50;99.90
27647;DHT22;42229;51.230;6.240;2022-10-16T07:26:49;14.50;99.90
27647;DHT22;42229;51.230;6.240;2022-10-16T07:29:18;14.50;99.90
27647;DHT22;42229;51.230;6.240;2022-10-16T07:31:46;14.60;99.90
27647;DHT22;42229;51.230;6.240;2022-10-16T07:34:14;14.60;99.90
27647;DHT22;42229;51.230;6.240;2022-10-16T07:36:40;14.70;99.90
27647;DHT22;42229;51.230;6.240;2022-10-16T07:39:07;14.70;99.90
27647;DHT22;42229;51.230;6.240;2022-10-16T07:41:34;14.80;99.90
27647;DHT22;42229;51.230;6.240;2022-10-16T07:44:02;14.90;99.90
27647;DHT22;42229;51.230;6.240;2022-10-16T07:46:29;15.00;99.90
27647;DHT22;42229;51.230;6.240;2022-10-16T07:48:55;15.00;99.90
27647;DHT22;42229;51.230;6.240;2022-10-16T07:51:23;15.10;99.90
27647;DHT22;42229;51.230;6.240;2022-10-16T07:53:50;15.20;99.90
27647;DHT22;42229;51.230;6.240;2022-10-16T07:56:17;15.30;99.90
27647;DHT22;42229;51.230;6.240;2022-10-16T07:58:44;15.40;99.90
27647;DHT22;42229;51.230;6.240;2022-10-16T08:01:11;15.50;99.90
27647;DHT22;42229;51.230;6.240;2022-10-16T08:03:41;15.60;99.90
27647;DHT22;42229;51.230;6.240;2022-10-16T08:06:11;15.70;99.90
27647;DHT22;42229;51.230;6.240;2022-10-16T08:08:37;15.80;99.90
27647;DHT22;42229;51.230;6.240;2022-10-16T08:11:03;15.90;99.90
27647;DHT22;42229;51.230;6.240;2022-10-16T08:13:30;16.00;99.90
27647;DHT22;42229;51.230;6.240;2022-10-16T08:15:56;16.10;99.90
27647;DHT22;42229;51.230;6.240;2022-10-16T08:18:23;16.20;99.90
27647;DHT22;42229;51.230;6.240;2022-10-16T08:20:55;16.30;99.90
27647;DHT22;42229;51.230;6.240;2022-10-16T08:23:22;16.40;99.90
27647;DHT22;42229;51.230;6.240;2022-10-16T08:25:49;16.50;99.90
27647;DHT22;42229;51.230;6.240;2022-10-16T08:28:15;16.60;99.90
27647;DHT22;42229;51.230;6.240;2022-10-16T08:30:42;16.70;99.90
27647;DHT22;42229;51.230;6.240;2022-10-16T08:33:08;16.70;99.90
27647;DHT22;42229;51.230;6.240;2022-10-16T08:35:34;16.90;99.90
27647;DHT22;42229;51.230;6.240;2022-10-16T08:38:04;17.00;99.90
27647;DHT22;42229;51.230;6.240;2022-10-16T08:40:31;17.00;99.90
27647;DHT22;42229;51.230;6.240;2022-10-16T08:45:52;17.20;99.90
27647;DHT22;42229;51.230;6.240;2022-10-16T08:48:35;17.30;99.90
27647;DHT22;42229;51.230;6.240;2022-10-16T08:51:21;17.30;99.90
27647;DHT22;42229;51.230;6.240;2022-10-16T08:53:58;17.50;99.90
27647;DHT22;42229;51.230;6.240;2022-10-16T08:56:25;17.50;99.90
27647;DHT22;42229;51.230;6.240;2022-10-16T08:58:52;17.60;99.90
27647;DHT22;42229;51.230;6.240;2022-10-16T09:01:21;17.70;99.90
27647;DHT22;42229;51.230;6.240;2022-10-16T09:06:23;17.70;99.90
27647;DHT22;42229;51.230;6.240;2022-10-16T09:12:16;17.80;99.90
27647;DHT22;42229;51.230;6.240;2022-10-16T09:20:30;18.00;99.90
27647;DHT22;42229;51.230;6.240;2022-10-16T09:26:04;18.10;99.90
27647;DHT22;42229;51.230;6.240;2022-10-16T09:28:31;18.20;99.90
27647;DHT22;42229;51.230;6.240;2022-10-16T09:30:58;18.20;99.90
27647;DHT22;42229;51.230;6.240;2022-10-16T09:33:25;18.30;99.90
27647;DHT22;42229;51.230;6.240;2022-10-16T09:35:55;18.40;99.90
27647;DHT22;42229;51.230;6.240;2022-10-16T09:38:28;18.40;99.90
27647;DHT22;42229;51.230;6.240;2022-10-16T09:40:56;18.40;99.90
27647;DHT22;42229;51.230;6.240;2022-10-16T09:43:24;18.50;99.90
27647;DHT22;42229;51.230;6.240;2022-10-16T09:46:02;18.50;99.90
27647;DHT22;42229;51.230;6.240;2022-10-16T09:48:37;18.50;99.90
27647;DHT22;42229;51.230;6.240;2022-10-16T09:51:06;18.60;99.90
27647;DHT22;42229;51.230;6.240;2022-10-16T09:56:11;18.70;99.90
27647;DHT22;42229;51.230;6.240;2022-10-16T09:58:43;18.80;99.90
27647;DHT22;42229;51.230;6.240;2022-10-16T10:01:12;18.90;99.90
27647;DHT22;42229;51.230;6.240;2022-10-16T10:03:40;19.00;99.90
27647;DHT22;42229;51.230;6.240;2022-10-16T10:06:19;19.10;99.90
27647;DHT22;42229;51.230;6.240;2022-10-16T10:08:52;19.10;99.90
27647;DHT22;42229;51.230;6.240;2022-10-16T10:11:42;19.30;99.90
27647;DHT22;42229;51.230;6.240;2022-10-16T10:14:18;19.30;99.90
27647;DHT22;42229;51.230;6.240;2022-10-16T10:16:45;19.40;99.90
27647;DHT22;42229;51.230;6.240;2022-10-16T10:19:19;19.50;99.90
27647;DHT22;42229;51.230;6.240;2022-10-16T10:21:49;19.70;99.90
27647;DHT22;42229;51.230;6.240;2022-10-16T10:24:17;19.70;99.90
27647;DHT22;42229;51.230;6.240;2022-10-16T10:26:50;19.90;99.90
27647;DHT22;42229;51.230;6.240;2022-10-16T10:29:24;20.00;99.90
27647;DHT22;42229;51.230;6.240;2022-10-16T10:32:19;20.10;99.90
27647;DHT22;42229;51.230;6.240;2022-10-16T10:35:14;20.30;99.90
27647;DHT22;42229;51.230;6.240;2022-10-16T10:40:18;20.50;99.90
27647;DHT22;42229;51.230;6.240;2022-10-16T10:43:08;20.50;99.90
27647;DHT22;42229;51.230;6.240;2022-10-16T10:46:04;20.60;99.90
27647;DHT22;42229;51.230;6.240;2022-10-16T10:48:50;20.60;99.90
27647;DHT22;42229;51.230;6.240;2022-10-16T10:56:58;20.80;99.90
27647;DHT22;42229;51.230;6.240;2022-10-16T11:02:34;20.80;99.90
27647;DHT22;42229;51.230;6.240;2022-10-16T11:07:57;20.80;99.90
27647;DHT22;42229;51.230;6.240;2022-10-16T11:15:51;21.00;99.90
27647;DHT22;42229;51.230;6.240;2022-10-16T11:18:21;21.10;99.90
27647;DHT22;42229;51.230;6.240;2022-10-16T11:20:52;21.20;99.90
27647;DHT22;42229;51.230;6.240;2022-10-16T11:26:30;21.50;99.90
27647;DHT22;42229;51.230;6.240;2022-10-16T11:28:57;21.60;99.90
27647;DHT22;42229;51.230;6.240;2022-10-16T11:34:21;22.10;99.90
27647;DHT22;42229;51.230;6.240;2022-10-16T11:36:52;22.40;99.90
27647;DHT22;42229;51.230;6.240;2022-10-16T11:39:21;22.60;99.90
27647;DHT22;42229;51.230;6.240;2022-10-16T11:42:03;23.00;99.90
27647;DHT22;42229;51.230;6.240;2022-10-16T11:49:57;24.00;99.90
27647;DHT22;42229;51.230;6.240;2022-10-16T11:52:44;24.30;99.90
27647;DHT22;42229;51.230;6.240;2022-10-16T11:55:18;24.70;99.90
27647;DHT22;42229;51.230;6.240;2022-10-16T11:57:51;24.90;99.90
27647;DHT22;42229;51.230;6.240;2022-10-16T12:00:24;25.10;99.90
27647;DHT22;42229;51.230;6.240;2022-10-16T12:06:22;25.50;99.90
27647;DHT22;42229;51.230;6.240;2022-10-16T12:08:45;25.80;96.70
27647;DHT22;42229;51.230;6.240;2022-10-16T12:11:31;25.80;94.70
27647;DHT22;42229;51.230;6.240;2022-10-16T12:16:57;25.60;93.20
27647;DHT22;42229;51.230;6.240;2022-10-16T12:19:28;25.50;93.70
27647;DHT22;42229;51.230;6.240;2022-10-16T12:21:56;25.30;92.60
27647;DHT22;42229;51.230;6.240;2022-10-16T12:24:35;25.30;99.90
27647;DHT22;42229;51.230;6.240;2022-10-16T12:27:03;25.10;99.30
27647;DHT22;42229;51.230;6.240;2022-10-16T12:29:38;25.00;99.90
27647;DHT22;42229;51.230;6.240;2022-10-16T12:32:06;24.80;99.10
27647;DHT22;42229;51.230;6.240;2022-10-16T12:35:03;24.80;99.90
27647;DHT22;42229;51.230;6.240;2022-10-16T12:37:31;24.80;99.90
27647;DHT22;42229;51.230;6.240;2022-10-16T12:39:59;25.00;99.90
27647;DHT22;42229;51.230;6.240;2022-10-16T12:42:37;25.20;96.70
27647;DHT22;42229;51.230;6.240;2022-10-16T12:45:21;25.50;99.30
27647;DHT22;42229;51.230;6.240;2022-10-16T12:47:50;25.50;99.90
27647;DHT22;42229;51.230;6.240;2022-10-16T12:50:23;25.50;99.90
27647;DHT22;42229;51.230;6.240;2022-10-16T12:52:54;25.30;99.90
27647;DHT22;42229;51.230;6.240;2022-10-16T12:55:21;25.20;99.90
27647;DHT22;42229;51.230;6.240;2022-10-16T13:03:07;24.70;99.90
27647;DHT22;42229;51.230;6.240;2022-10-16T13:05:54;24.50;96.40
27647;DHT22;42229;51.230;6.240;2022-10-16T13:08:33;24.30;99.90
27647;DHT22;42229;51.230;6.240;2022-10-16T13:11:15;24.20;99.90
27647;DHT22;42229;51.230;6.240;2022-10-16T13:13:50;24.10;99.90
27647;DHT22;42229;51.230;6.240;2022-10-16T13:22:14;23.80;99.90
27647;DHT22;42229;51.230;6.240;2022-10-16T13:24:55;23.70;99.90
27647;DHT22;42229;51.230;6.240;2022-10-16T13:30:20;23.60;99.90
27647;DHT22;42229;51.230;6.240;2022-10-16T13:33:02;23.60;99.90
27647;DHT22;42229;51.230;6.240;2022-10-16T13:36:01;23.50;99.90
27647;DHT22;42229;51.230;6.240;2022-10-16T13:38:32;23.50;99.90
27647;DHT22;42229;51.230;6.240;2022-10-16T13:41:04;23.50;99.90
27647;DHT22;42229;51.230;6.240;2022-10-16T13:43:38;23.50;99.90
27647;DHT22;42229;51.230;6.240;2022-10-16T13:48:42;23.60;99.90
27647;DHT22;42229;51.230;6.240;2022-10-16T13:51:15;23.60;99.90
27647;DHT22;42229;51.230;6.240;2022-10-16T13:53:43;23.60;99.90
27647;DHT22;42229;51.230;6.240;2022-10-16T13:56:17;23.60;99.90
27647;DHT22;42229;51.230;6.240;2022-10-16T13:58:44;23.50;99.90
27647;DHT22;42229;51.230;6.240;2022-10-16T14:01:18;23.40;99.90
27647;DHT22;42229;51.230;6.240;2022-10-16T14:03:46;23.30;99.90
27647;DHT22;42229;51.230;6.240;2022-10-16T14:06:14;23.20;99.90
27647;DHT22;42229;51.230;6.240;2022-10-16T14:08:44;23.20;99.90
27647;DHT22;42229;51.230;6.240;2022-10-16T14:11:12;23.10;99.90
27647;DHT22;42229;51.230;6.240;2022-10-16T14:13:44;23.10;99.90
27647;DHT22;42229;51.230;6.240;2022-10-16T14:16:16;23.00;99.90
27647;DHT22;42229;51.230;6.240;2022-10-16T14:18:45;22.90;99.90
27647;DHT22;42229;51.230;6.240;2022-10-16T14:21:15;22.90;99.90
27647;DHT22;42229;51.230;6.240;2022-10-16T14:23:42;22.80;99.90
27647;DHT22;42229;51.230;6.240;2022-10-16T14:28:35;22.70;99.90
27647;DHT22;42229;51.230;6.240;2022-10-16T14:31:03;22.60;99.90
27647;DHT22;42229;51.230;6.240;2022-10-16T14:33:45;22.50;99.90
27647;DHT22;42229;51.230;6.240;2022-10-16T14:36:12;22.50;99.90
27647;DHT22;42229;51.230;6.240;2022-10-16T14:38:47;22.40;99.90
27647;DHT22;42229;51.230;6.240;2022-10-16T14:41:21;22.40;99.90
27647;DHT22;42229;51.230;6.240;2022-10-16T14:43:53;22.30;99.90
27647;DHT22;42229;51.230;6.240;2022-10-16T14:46:34;22.30;99.90
27647;DHT22;42229;51.230;6.240;2022-10-16T14:49:03;22.20;99.90
27647;DHT22;42229;51.230;6.240;2022-10-16T14:51:39;22.20;99.90
27647;DHT22;42229;51.230;6.240;2022-10-16T14:54:11;22.10;99.90
27647;DHT22;42229;51.230;6.240;2022-10-16T14:56:42;22.10;99.90
27647;DHT22;42229;51.230;6.240;2022-10-16T14:59:22;22.10;99.90
27647;DHT22;42229;51.230;6.240;2022-10-16T15:01:49;22.00;99.90
27647;DHT22;42229;51.230;6.240;2022-10-16T15:04:16;22.00;99.90
27647;DHT22;42229;51.230;6.240;2022-10-16T15:06:42;21.90;99.90
27647;DHT22;42229;51.230;6.240;2022-10-16T15:09:08;21.90;99.90
27647;DHT22;42229;51.230;6.240;2022-10-16T15:11:34;21.80;99.90
27647;DHT22;42229;51.230;6.240;2022-10-16T15:14:01;21.80;99.90
27647;DHT22;42229;51.230;6.240;2022-10-16T15:16:29;21.80;99.90
27647;DHT22;42229;51.230;6.240;2022-10-16T15:18:55;21.70;99.90
27647;DHT22;42229;51.230;6.240;2022-10-16T15:21:25;21.70;99.90
27647;DHT22;42229;51.230;6.240;2022-10-16T15:23:53;21.60;99.90
27647;DHT22;42229;51.230;6.240;2022-10-16T15:26:20;21.50;99.90
27647;DHT22;42229;51.230;6.240;2022-10-16T15:28:46;21.50;99.90
27647;DHT22;42229;51.230;6.240;2022-10-16T15:31:12;21.50;99.90
27647;DHT22;42229;51.230;6.240;2022-10-16T15:33:39;21.40;99.90
27647;DHT22;42229;51.230;6.240;2022-10-16T15:36:05;21.30;99.90
27647;DHT22;42229;51.230;6.240;2022-10-16T15:38:32;21.30;99.90
27647;DHT22;42229;51.230;6.240;2022-10-16T15:40:58;21.30;99.90
27647;DHT22;42229;51.230;6.240;2022-10-16T15:43:27;21.20;99.90
27647;DHT22;42229;51.230;6.240;2022-10-16T15:46:05;21.20;99.90
27647;DHT22;42229;51.230;6.240;2022-10-16T15:48:32;21.10;99.90
27647;DHT22;42229;51.230;6.240;2022-10-16T15:51:05;21.10;99.90
27647;DHT22;42229;51.230;6.240;2022-10-16T15:53:33;21.00;99.90
27647;DHT22;42229;51.230;6.240;2022-10-16T15:56:03;21.00;99.90
27647;DHT22;42229;51.230;6.240;2022-10-16T15:58:30;20.90;99.90
27647;DHT22;42229;51.230;6.240;2022-10-16T16:00:57;20.90;99.90
27647;DHT22;42229;51.230;6.240;2022-10-16T16:03:26;20.80;99.90
27647;DHT22;42229;51.230;6.240;2022-10-16T16:05:53;20.80;99.90
27647;DHT22;42229;51.230;6.240;2022-10-16T16:08:20;20.70;99.90
27647;DHT22;42229;51.230;6.240;2022-10-16T16:13:29;20.60;99.90
27647;DHT22;42229;51.230;6.240;2022-10-16T16:15:55;20.60;99.90
27647;DHT22;42229;51.230;6.240;2022-10-16T16:18:22;20.50;99.90
27647;DHT22;42229;51.230;6.240;2022-10-16T16:20:50;20.40;99.90
27647;DHT22;42229;51.230;6.240;2022-10-16T16:23:16;20.40;99.90
27647;DHT22;42229;51.230;6.240;2022-10-16T16:25:42;20.30;99.90
27647;DHT22;42229;51.230;6.240;2022-10-16T16:28:09;20.20;99.90
27647;DHT22;42229;51.230;6.240;2022-10-16T16:30:36;20.20;99.90
27647;DHT22;42229;51.230;6.240;2022-10-16T16:33:02;20.10;99.90
27647;DHT22;42229;51.230;6.240;2022-10-16T16:35:29;20.00;99.90
27647;DHT22;42229;51.230;6.240;2022-10-16T16:37:55;20.00;99.90
27647;DHT22;42229;51.230;6.240;2022-10-16T16:40:21;19.90;99.90
27647;DHT22;42229;51.230;6.240;2022-10-16T16:42:48;19.80;99.90
27647;DHT22;42229;51.230;6.240;2022-10-16T16:45:14;19.80;99.90
27647;DHT22;42229;51.230;6.240;2022-10-16T16:47:41;19.70;99.90
27647;DHT22;42229;51.230;6.240;2022-10-16T16:50:07;19.60;99.90
27647;DHT22;42229;51.230;6.240;2022-10-16T16:52:34;19.60;99.90
27647;DHT22;42229;51.230;6.240;2022-10-16T16:55:00;19.50;99.90
27647;DHT22;42229;51.230;6.240;2022-10-16T16:57:27;19.40;99.90
27647;DHT22;42229;51.230;6.240;2022-10-16T16:59:53;19.40;99.90
27647;DHT22;42229;51.230;6.240;2022-10-16T17:02:20;19.30;99.90
27647;DHT22;42229;51.230;6.240;2022-10-16T17:04:46;19.20;99.90
27647;DHT22;42229;51.230;6.240;2022-10-16T17:07:12;19.20;99.90
27647;DHT22;42229;51.230;6.240;2022-10-16T17:09:38;19.10;99.90
27647;DHT22;42229;51.230;6.240;2022-10-16T17:12:05;19.10;99.90
27647;DHT22;42229;51.230;6.240;2022-10-16T17:14:31;19.10;99.90
27647;DHT22;42229;51.230;6.240;2022-10-16T17:16:58;19.10;99.90
27647;DHT22;42229;51.230;6.240;2022-10-16T17:19:24;19.00;99.90
27647;DHT22;42229;51.230;6.240;2022-10-16T17:21:50;18.90;99.90
27647;DHT22;42229;51.230;6.240;2022-10-16T17:24:17;18.90;99.90
27647;DHT22;42229;51.230;6.240;2022-10-16T17:26:44;18.90;99.90